createdAt,value
2019-06-07T00:00:50.325Z,99397.05
2019-06-07T00:03:27.522Z,99394.36
2019-06-07T00:05:45.289Z,99384.54
2019-06-07T00:08:21.440Z,99371.94
2019-06-07T00:10:40.228Z,99373.38
2019-06-07T00:13:09.543Z,99374.23
2019-06-07T00:15:35.209Z,99375.99
2019-06-07T00:18:02.667Z,99371.20
2019-06-07T00:20:30.118Z,99374.53
2019-06-07T00:22:57.563Z,99362.45
2019-06-07T00:25:24.973Z,99350.30
2019-06-07T00:27:52.449Z,99342.43
2019-06-07T00:30:39.998Z,99335.45
2019-06-07T00:32:47.366Z,99341.74
2019-06-07T00:35:17.221Z,99342.91
2019-06-07T00:37:42.338Z,99341.77
2019-06-07T00:40:16.377Z,99349.73
2019-06-07T00:42:37.263Z,99353.57
2019-06-07T00:45:04.716Z,99348.55
2019-06-07T00:47:32.171Z,99344.52
2019-06-07T00:49:59.633Z,99342.91
2019-06-07T00:53:14.074Z,99340.73
2019-06-07T00:54:55.456Z,99337.46
2019-06-07T00:57:24.415Z,99330.40
2019-06-07T00:59:50.339Z,99332.92
2019-06-07T01:02:20.930Z,99327.32
2019-06-07T01:04:45.284Z,99329.00
2019-06-07T01:07:13.210Z,99324.63
2019-06-07T01:09:40.188Z,99332.02
2019-06-07T01:12:08.389Z,99333.09
2019-06-07T01:14:35.998Z,99343.48
2019-06-07T01:17:23.398Z,99340.00
2019-06-07T01:19:40.163Z,99343.62
2019-06-07T01:22:07.593Z,99351.60
2019-06-07T01:24:35.052Z,99350.11
2019-06-07T01:27:02.486Z,99346.09
2019-06-07T01:29:31.183Z,99345.57
2019-06-07T01:31:57.394Z,99344.23
2019-06-07T01:34:26.797Z,99341.44
2019-06-07T01:36:52.313Z,99342.30
2019-06-07T01:39:21.105Z,99343.70
2019-06-07T01:41:47.254Z,99339.83
2019-06-07T01:44:14.710Z,99352.22
2019-06-07T01:46:42.173Z,99346.80
2019-06-07T01:49:10.195Z,99346.40
2019-06-07T01:51:37.638Z,99341.33
2019-06-07T01:56:32.594Z,99338.63
2019-06-07T01:59:00.071Z,99330.64
2019-06-07T02:01:34.617Z,99329.96
2019-06-07T02:03:54.971Z,99329.58
2019-06-07T02:06:26.008Z,99326.91
2019-06-07T02:08:49.885Z,99323.00
2019-06-07T02:11:18.040Z,99322.45
2019-06-07T02:13:44.831Z,99321.34
2019-06-07T02:16:12.294Z,99323.09
2019-06-07T02:19:00.631Z,99323.89
2019-06-07T02:21:07.231Z,99317.91
2019-06-07T02:23:34.653Z,99314.77
2019-06-07T02:26:02.088Z,99315.05
2019-06-07T02:28:44.199Z,99319.14
2019-06-07T02:30:59.813Z,99319.23
2019-06-07T02:33:30.436Z,99318.09
2019-06-07T02:35:52.447Z,99321.28
2019-06-07T02:38:19.861Z,99311.38
2019-06-07T02:40:47.301Z,99307.58
2019-06-07T02:43:14.744Z,99305.61
2019-06-07T02:45:43.716Z,99301.48
2019-06-07T02:48:09.669Z,99308.28
2019-06-07T02:50:38.769Z,99308.06
2019-06-07T02:53:04.673Z,99299.47
2019-06-07T02:55:44.724Z,99300.17
2019-06-07T02:58:00.568Z,99290.94
2019-06-07T03:01:06.997Z,99292.69
2019-06-07T03:03:24.508Z,99290.51
2019-06-07T03:05:50.512Z,99297.94
2019-06-07T03:08:17.935Z,99303.93
2019-06-07T03:10:46.317Z,99296.23
2019-06-07T03:13:16.674Z,99287.96
2019-06-07T03:15:50.001Z,99290.06
2019-06-07T03:18:31.463Z,99287.11
2019-06-07T03:21:05.168Z,99286.80
2019-06-07T03:23:26.307Z,99294.97
2019-06-07T03:25:53.497Z,99286.73
2019-06-07T03:28:20.957Z,99286.77
2019-06-07T03:31:01.605Z,99285.49
2019-06-07T03:33:15.955Z,99281.62
2019-06-07T03:35:43.463Z,99278.27
2019-06-07T03:38:10.988Z,99280.94
2019-06-07T03:40:40.133Z,99274.88
2019-06-07T03:43:05.952Z,99273.12
2019-06-07T03:45:36.022Z,99274.19
2019-06-07T03:48:01.572Z,99277.64
2019-06-07T03:50:31.909Z,99282.92
2019-06-07T03:52:56.521Z,99290.78
2019-06-07T03:55:24.018Z,99277.14
2019-06-07T04:00:19.025Z,99274.27
2019-06-07T04:02:46.472Z,99284.56
2019-06-07T04:05:13.964Z,99280.12
2019-06-07T04:07:44.362Z,99280.59
2019-06-07T04:10:08.900Z,99271.08
2019-06-07T04:12:40.053Z,99263.25
2019-06-07T04:15:03.815Z,99253.14
2019-06-07T04:17:33.846Z,99251.33
2019-06-07T04:19:59.598Z,99249.11
2019-06-07T04:22:28.787Z,99252.13
2019-06-07T04:24:54.588Z,99246.05
2019-06-07T04:27:22.058Z,99251.23
2019-06-07T04:30:06.378Z,99245.55
2019-06-07T04:32:16.998Z,99237.27
2019-06-07T04:34:44.472Z,99242.19
2019-06-07T04:37:11.981Z,99237.95
2019-06-07T04:39:44.678Z,99241.94
2019-06-07T04:42:06.888Z,99241.89
2019-06-07T04:44:37.035Z,99241.75
2019-06-07T04:47:01.876Z,99232.52
2019-06-07T04:49:29.952Z,99221.00
2019-06-07T04:51:56.783Z,99215.41
2019-06-07T04:54:24.272Z,99210.05
2019-06-07T04:56:51.677Z,99211.16
2019-06-07T05:00:00.839Z,99210.25
2019-06-07T05:01:46.557Z,99211.25
2019-06-07T05:04:14.045Z,99203.98
2019-06-07T05:06:42.580Z,99203.09
2019-06-07T05:09:08.950Z,99204.86
2019-06-07T05:11:38.555Z,99197.25
2019-06-07T05:14:03.876Z,99189.12
2019-06-07T05:16:34.746Z,99185.37
2019-06-07T05:18:58.873Z,99188.98
2019-06-07T05:21:46.518Z,99196.95
2019-06-07T05:24:06.534Z,99185.91
2019-06-07T05:26:21.338Z,99192.27
2019-06-07T05:28:48.791Z,99190.84
2019-06-07T05:31:17.203Z,99190.51
2019-06-07T05:33:44.839Z,99191.03
2019-06-07T05:36:12.310Z,99190.75
2019-06-07T05:38:42.619Z,99187.86
2019-06-07T05:41:07.245Z,99187.44
2019-06-07T05:43:38.569Z,99185.42
2019-06-07T05:46:02.184Z,99186.19
2019-06-07T05:48:29.636Z,99184.23
2019-06-07T05:50:57.711Z,99183.36
2019-06-07T05:53:24.610Z,99175.89
2019-06-07T05:55:52.092Z,99176.98
2019-06-07T05:58:19.587Z,99177.50
2019-06-07T06:00:47.744Z,99179.36
2019-06-07T06:03:14.478Z,99173.55
2019-06-07T06:05:48.662Z,99166.94
2019-06-07T06:08:09.463Z,99162.02
2019-06-07T06:10:39.602Z,99160.61
2019-06-07T06:13:04.845Z,99160.27
2019-06-07T06:15:42.338Z,99160.77
2019-06-07T06:17:59.804Z,99161.43
2019-06-07T06:20:32.898Z,99157.58
2019-06-07T06:22:54.731Z,99157.41
2019-06-07T06:25:32.535Z,99150.20
2019-06-07T06:28:10.235Z,99143.89
2019-06-07T06:30:17.191Z,99139.27
2019-06-07T06:32:52.664Z,99141.62
2019-06-07T06:35:12.157Z,99142.20
2019-06-07T06:37:42.685Z,99136.41
2019-06-07T06:40:07.123Z,99129.08
2019-06-07T06:42:35.388Z,99131.70
2019-06-07T06:45:02.974Z,99139.36
2019-06-07T06:47:30.347Z,99138.42
2019-06-07T06:49:58.882Z,99141.59
2019-06-07T06:52:26.304Z,99131.38
2019-06-07T06:54:59.997Z,99129.78
2019-06-07T06:57:21.214Z,99129.45
2019-06-07T06:59:51.096Z,99137.52
2019-06-07T07:02:16.158Z,99137.92
2019-06-07T07:04:45.288Z,99139.50
2019-06-07T07:07:11.166Z,99131.31
2019-06-07T07:09:38.623Z,99142.06
2019-06-07T07:12:11.678Z,99140.95
2019-06-07T07:14:33.669Z,99134.50
2019-06-07T07:17:01.104Z,99128.34
2019-06-07T07:19:28.562Z,99122.09
2019-06-07T07:21:56.004Z,99122.25
2019-06-07T07:24:23.506Z,99130.88
2019-06-07T07:26:53.895Z,99120.02
2019-06-07T07:29:18.389Z,99114.56
2019-06-07T07:31:50.282Z,99103.47
2019-06-07T07:34:32.087Z,99100.59
2019-06-07T07:36:40.843Z,99096.45
2019-06-07T07:39:08.276Z,99097.68
2019-06-07T07:41:36.482Z,99099.16
2019-06-07T07:44:06.902Z,99094.16
2019-06-07T07:46:31.432Z,99092.81
2019-06-07T07:48:58.940Z,99091.68
2019-06-07T07:51:26.391Z,99075.95
2019-06-07T07:54:09.395Z,99073.38
2019-06-07T07:56:21.335Z,99066.09
2019-06-07T07:58:51.155Z,99065.62
2019-06-07T08:01:16.303Z,99056.72
2019-06-07T08:03:43.726Z,99052.09
2019-06-07T08:06:12.961Z,99057.76
2019-06-07T08:08:40.580Z,99049.73
2019-06-07T08:11:08.107Z,99051.81
2019-06-07T08:13:35.553Z,99044.57
2019-06-07T08:16:10.770Z,99031.58
2019-06-07T08:18:30.524Z,99031.98
2019-06-07T08:21:20.461Z,99027.03
2019-06-07T08:23:25.432Z,99027.72
2019-06-07T08:26:00.032Z,99019.31
2019-06-07T08:28:20.392Z,99018.61
2019-06-07T08:30:52.999Z,99017.84
2019-06-07T08:33:26.030Z,99015.58
2019-06-07T08:36:05.795Z,98997.53
2019-06-07T08:38:33.809Z,99001.43
2019-06-07T08:40:37.809Z,98990.36
2019-06-07T08:43:19.322Z,98977.20
2019-06-07T08:45:32.761Z,98986.14
2019-06-07T08:48:05.395Z,98971.39
2019-06-07T08:50:27.656Z,98959.39
2019-06-07T08:53:10.655Z,98958.11
2019-06-07T08:55:25.489Z,98963.17
2019-06-07T08:58:01.270Z,98956.14
2019-06-07T09:02:47.978Z,98951.34
2019-06-07T09:05:15.451Z,98949.56
2019-06-07T09:07:42.921Z,98938.30
2019-06-07T09:10:14.442Z,98931.53
2019-06-07T09:12:38.273Z,98935.84
2019-06-07T09:15:20.972Z,98927.98
2019-06-07T09:17:34.156Z,98930.49
2019-06-07T09:20:07.279Z,98922.84
2019-06-07T09:22:28.131Z,98923.53
2019-06-07T09:25:06.297Z,98934.13
2019-06-07T09:27:23.090Z,98925.42
2019-06-07T09:29:50.567Z,98925.88
2019-06-07T09:32:18.636Z,98917.20
2019-06-07T09:34:45.524Z,98912.50
2019-06-07T09:38:02.991Z,98912.65
2019-06-07T09:39:40.477Z,98906.99
2019-06-07T09:42:12.002Z,98912.35
2019-06-07T09:44:36.382Z,98910.13
2019-06-07T09:47:22.261Z,98907.16
2019-06-07T09:49:33.182Z,98899.62
2019-06-07T09:52:00.510Z,98894.85
2019-06-07T09:55:03.234Z,98893.81
2019-06-07T09:56:53.851Z,98892.78
2019-06-07T09:59:21.334Z,98888.80
2019-06-07T10:01:49.496Z,98883.84
2019-06-07T10:04:30.754Z,98883.55
2019-06-07T10:06:44.502Z,98876.91
2019-06-07T10:10:09.466Z,98874.80
2019-06-07T10:11:39.545Z,98854.24
2019-06-07T10:14:08.697Z,98851.66
2019-06-07T10:16:46.220Z,98837.56
2019-06-07T10:19:03.664Z,98844.41
2019-06-07T10:21:29.950Z,98846.80
2019-06-07T10:23:57.430Z,98837.36
2019-06-07T10:26:24.919Z,98826.31
2019-06-07T10:28:53.575Z,98816.97
2019-06-07T10:31:19.973Z,98812.30
2019-06-07T10:33:47.428Z,98808.98
2019-06-07T10:36:15.193Z,98822.39
2019-06-07T10:38:42.645Z,98818.98
2019-06-07T10:41:11.218Z,98806.15
2019-06-07T10:43:38.579Z,98813.53
2019-06-07T10:46:06.333Z,98804.17
2019-06-07T10:48:33.569Z,98812.47
2019-06-07T10:51:02.201Z,98814.25
2019-06-07T10:53:28.494Z,98805.05
2019-06-07T10:55:55.955Z,98803.98
2019-06-07T10:58:23.441Z,98815.07
2019-06-07T11:00:51.155Z,98808.36
2019-06-07T11:03:18.438Z,98806.34
2019-06-07T11:05:45.894Z,98808.00
2019-06-07T11:08:14.928Z,98814.27
2019-06-07T11:10:40.804Z,98808.09
2019-06-07T11:13:08.319Z,98799.66
2019-06-07T11:15:35.841Z,98802.25
2019-06-07T11:18:03.317Z,98790.19
2019-06-07T11:20:30.765Z,98785.62
2019-06-07T11:22:58.198Z,98781.73
2019-06-07T11:25:25.753Z,98769.95
2019-06-07T11:27:53.203Z,98767.02
2019-06-07T11:30:20.723Z,98771.34
2019-06-07T11:32:48.171Z,98763.47
2019-06-07T11:35:15.702Z,98774.33
2019-06-07T11:37:43.156Z,98751.27
2019-06-07T11:40:28.038Z,98742.45
2019-06-07T11:42:38.572Z,98732.89
2019-06-07T11:45:06.071Z,98735.72
2019-06-07T11:47:33.505Z,98729.43
2019-06-07T11:50:01.853Z,98722.52
2019-06-07T11:52:29.347Z,98708.49
2019-06-07T11:54:56.809Z,98706.27
2019-06-07T11:57:24.272Z,98709.38
2019-06-07T11:59:51.734Z,98708.06
2019-06-07T12:02:20.080Z,98698.61
2019-06-07T12:04:47.973Z,98703.44
2019-06-07T12:07:17.019Z,98691.70
2019-06-07T12:09:55.928Z,98683.27
2019-06-07T12:12:12.590Z,98692.34
2019-06-07T12:14:39.178Z,98688.19
2019-06-07T12:17:07.479Z,98678.66
2019-06-07T12:19:35.175Z,98670.55
2019-06-07T12:22:02.650Z,98661.69
2019-06-07T12:24:30.540Z,98657.22
2019-06-07T12:26:58.018Z,98650.41
2019-06-07T12:29:25.582Z,98665.09
2019-06-07T12:31:53.059Z,98657.80
2019-06-07T12:34:22.927Z,98663.94
2019-06-07T12:36:50.405Z,98640.52
2019-06-07T12:39:18.059Z,98656.42
2019-06-07T12:41:45.356Z,98647.58
2019-06-07T12:44:12.808Z,98632.02
2019-06-07T12:46:40.748Z,98626.16
2019-06-07T12:49:08.846Z,98623.27
2019-06-07T12:51:36.314Z,98625.80
2019-06-07T12:54:03.795Z,98622.88
2019-06-07T12:56:31.216Z,98618.91
2019-06-07T12:58:58.710Z,98606.91
2019-06-07T13:01:26.161Z,98604.58
2019-06-07T13:03:54.747Z,98594.34
2019-06-07T13:06:23.599Z,98592.37
2019-06-07T13:08:49.873Z,98606.64
2019-06-07T13:11:22.292Z,98603.53
2019-06-07T13:13:44.867Z,98614.53
2019-06-07T13:16:13.267Z,98600.05
2019-06-07T13:18:40.741Z,98614.60
2019-06-07T13:21:08.179Z,98608.27
2019-06-07T13:23:35.639Z,98605.55
2019-06-07T13:26:03.089Z,98617.38
2019-06-07T13:28:30.537Z,98604.48
2019-06-07T13:30:57.969Z,98611.23
2019-06-07T13:33:25.813Z,98613.95
2019-06-07T13:35:52.935Z,98611.00
2019-06-07T13:38:25.246Z,98608.16
2019-06-07T13:40:52.711Z,98609.39
2019-06-07T13:43:21.372Z,98603.70
2019-06-07T13:45:47.682Z,98601.95
2019-06-07T13:48:15.189Z,98597.46
2019-06-07T13:50:42.624Z,98612.05
2019-06-07T13:53:10.423Z,98603.67
2019-06-07T13:55:37.921Z,98608.36
2019-06-07T13:58:05.384Z,98608.64
2019-06-07T14:00:32.858Z,98597.52
2019-06-07T14:03:00.295Z,98588.64
2019-06-07T14:05:29.135Z,98582.17
2019-06-07T14:07:55.388Z,98573.10
2019-06-07T14:10:23.651Z,98585.56
2019-06-07T14:12:51.373Z,98592.94
2019-06-07T14:15:20.492Z,98585.55
2019-06-07T14:17:48.146Z,98587.99
2019-06-07T14:20:16.922Z,98592.30
2019-06-07T14:22:44.392Z,98585.95
2019-06-07T14:25:12.069Z,98586.81
2019-06-07T14:27:39.497Z,98595.44
2019-06-07T14:30:07.130Z,98598.64
2019-06-07T14:32:34.565Z,98587.34
2019-06-07T14:35:02.374Z,98599.16
2019-06-07T14:37:30.957Z,98598.11
2019-06-07T14:39:57.547Z,98588.97
2019-06-07T14:42:25.388Z,98590.17
2019-06-07T14:44:52.891Z,98590.09
2019-06-07T14:47:20.615Z,98591.86
2019-06-07T14:49:48.161Z,98590.09
2019-06-07T14:52:15.751Z,98590.84
2019-06-07T14:54:44.867Z,98589.84
2019-06-07T14:57:12.383Z,98579.06
2019-06-07T14:59:39.831Z,98587.19
2019-06-07T15:02:07.995Z,98594.02
2019-06-07T15:04:35.436Z,98581.63
2019-06-07T15:07:02.930Z,98581.33
2019-06-07T15:09:31.061Z,98581.42
2019-06-07T15:11:57.849Z,98570.70
2019-06-07T15:14:27.417Z,98569.16
2019-06-07T15:16:54.839Z,98575.55
2019-06-07T15:19:24.110Z,98579.98
2019-06-07T15:21:49.760Z,98574.48
2019-06-07T15:24:17.243Z,98568.98
2019-06-07T15:26:44.691Z,98570.16
2019-06-07T15:29:12.184Z,98580.34
2019-06-07T15:31:39.668Z,98577.30
2019-06-07T15:34:07.101Z,98576.17
2019-06-07T15:36:34.545Z,98569.56
2019-06-07T15:39:02.832Z,98573.28
2019-06-07T15:41:30.942Z,98590.59
2019-06-07T15:43:57.767Z,98587.27
2019-06-07T15:46:25.232Z,98589.30
2019-06-07T15:48:52.709Z,98584.80
2019-06-07T15:51:20.192Z,98595.23
2019-06-07T15:53:47.636Z,98616.91
2019-06-07T15:56:15.056Z,98612.97
2019-06-07T15:58:42.501Z,98629.34
2019-06-07T16:01:10.384Z,98632.80
2019-06-07T16:03:38.029Z,98629.60
2019-06-07T16:06:05.324Z,98648.98
2019-06-07T16:08:34.237Z,98669.87
2019-06-07T16:11:00.252Z,98698.84
2019-06-07T16:13:28.147Z,98763.73
2019-06-07T16:15:55.622Z,98777.78
2019-06-07T16:18:23.110Z,98726.94
2019-06-07T16:20:50.549Z,98722.91
2019-06-07T16:23:18.025Z,98710.83
2019-06-07T16:25:45.479Z,98718.33
2019-06-07T16:28:12.982Z,98730.02
2019-06-07T16:30:40.704Z,98724.09
2019-06-07T16:33:07.929Z,98727.77
2019-06-07T16:35:35.401Z,98725.09
2019-06-07T16:38:02.906Z,98767.02
2019-06-07T16:40:30.380Z,98774.53
2019-06-07T16:43:13.340Z,98795.15
2019-06-07T16:45:25.315Z,98813.22
2019-06-07T16:47:53.307Z,98814.72
2019-06-07T16:50:20.758Z,98801.67
2019-06-07T16:52:48.734Z,98825.28
2019-06-07T16:55:15.729Z,98812.37
2019-06-07T16:57:43.171Z,98821.15
2019-06-07T17:00:10.622Z,98828.06
2019-06-07T17:02:38.145Z,98847.19
2019-06-07T17:05:07.230Z,98823.78
2019-06-07T17:07:34.708Z,98817.55
2019-06-07T17:10:02.169Z,98829.58
2019-06-07T17:12:29.637Z,98838.52
2019-06-07T17:14:57.104Z,98835.75
2019-06-07T17:17:24.552Z,98842.09
2019-06-07T17:19:51.982Z,98843.78
2019-06-07T17:22:19.473Z,98852.41
2019-06-07T17:24:47.608Z,98872.20
2019-06-07T17:27:14.402Z,98879.30
2019-06-07T17:29:43.657Z,98898.84
2019-06-07T17:32:10.348Z,98897.34
2019-06-07T17:34:37.806Z,98904.28
2019-06-07T17:37:05.228Z,98906.02
2019-06-07T17:39:32.706Z,98924.14
2019-06-07T17:42:02.349Z,98924.59
2019-06-07T17:44:27.654Z,98922.41
2019-06-07T17:46:55.104Z,98917.14
2019-06-07T17:49:22.575Z,98916.78
2019-06-07T17:51:50.091Z,98926.08
2019-06-07T17:54:17.491Z,98916.95
2019-06-07T17:56:46.205Z,98917.39
2019-06-07T17:59:12.432Z,98927.69
2019-06-07T18:01:41.811Z,98921.74
2019-06-07T18:04:07.362Z,98919.74
2019-06-07T18:06:34.819Z,98915.74
2019-06-07T18:09:02.278Z,98905.56
2019-06-07T18:11:29.715Z,98892.47
2019-06-07T18:14:09.999Z,98887.36
2019-06-07T18:16:25.215Z,98885.09
2019-06-07T18:18:52.817Z,98871.16
2019-06-07T18:21:20.151Z,98866.20
2019-06-07T18:23:48.288Z,98862.81
2019-06-07T18:26:15.059Z,98867.52
2019-06-07T18:28:42.535Z,98872.48
2019-06-07T18:31:10.358Z,98869.92
2019-06-07T18:33:37.919Z,98875.25
2019-06-07T18:36:05.425Z,98881.39
2019-06-07T18:38:32.935Z,98860.02
2019-06-07T18:41:00.381Z,98856.12
2019-06-07T18:43:27.874Z,98838.53
2019-06-07T18:45:57.620Z,98826.66
2019-06-07T18:48:25.012Z,98841.55
2019-06-07T18:50:52.652Z,98820.63
2019-06-07T18:53:19.985Z,98798.50
2019-06-07T18:55:47.846Z,98803.53
2019-06-07T18:58:14.916Z,98792.58
2019-06-07T19:00:42.403Z,98804.77
2019-06-07T19:03:10.427Z,98800.19
2019-06-07T19:05:37.888Z,98809.47
2019-06-07T19:08:05.324Z,98845.27
2019-06-07T19:10:32.805Z,98847.06
2019-06-07T19:13:00.639Z,98812.95
2019-06-07T19:15:27.697Z,98817.59
2019-06-07T19:17:56.085Z,98820.70
2019-06-07T19:20:22.628Z,98834.20
2019-06-07T19:22:50.205Z,98817.81
2019-06-07T19:25:17.567Z,98803.43
2019-06-07T19:27:45.006Z,98823.83
2019-06-07T19:30:12.467Z,98797.59
2019-06-07T19:32:39.949Z,98828.34
2019-06-07T19:35:07.392Z,98855.70
2019-06-07T19:37:34.832Z,98875.80
2019-06-07T19:40:02.795Z,98864.81
2019-06-07T19:42:29.839Z,98874.34
2019-06-07T19:45:09.828Z,98864.55
2019-06-07T19:47:24.789Z,98867.14
2019-06-07T19:49:53.062Z,98867.05
2019-06-07T19:52:19.699Z,98858.59
2019-06-07T19:54:47.263Z,98863.41
2019-06-07T19:57:14.707Z,98891.47
2019-06-07T19:59:43.621Z,98892.26
2019-06-07T20:02:11.130Z,98898.91
2019-06-07T20:04:42.889Z,98914.77
2019-06-07T20:07:11.206Z,98932.48
2019-06-07T20:09:38.727Z,98933.68
2019-06-07T20:12:06.185Z,98945.37
2019-06-07T20:14:33.648Z,98932.67
2019-06-07T20:17:01.396Z,98927.88
2019-06-07T20:19:28.574Z,98938.91
2019-06-07T20:21:56.852Z,98954.53
2019-06-07T20:24:27.276Z,98932.05
2019-06-07T20:26:51.312Z,98924.03
2019-06-07T20:29:25.978Z,98918.01
2019-06-07T20:31:46.238Z,98906.44
2019-06-07T20:34:14.454Z,98909.95
2019-06-07T20:36:41.897Z,98897.89
2019-06-07T20:39:09.379Z,98911.23
2019-06-07T20:41:36.840Z,98916.49
2019-06-07T20:44:05.787Z,98903.25
2019-06-07T20:46:31.847Z,98913.13
2019-06-07T20:49:00.417Z,98899.14
2019-06-07T20:51:26.798Z,98906.27
2019-06-07T20:53:54.262Z,98901.06
2019-06-07T20:56:24.581Z,98917.73
2019-06-07T20:58:49.381Z,98936.06
2019-06-07T21:01:16.891Z,98927.19
2019-06-07T21:03:44.330Z,98914.30
2019-06-07T21:06:11.844Z,98911.76
2019-06-07T21:08:39.264Z,98929.17
2019-06-07T21:11:07.753Z,98916.23
2019-06-07T21:13:34.255Z,98942.19
2019-06-07T21:16:01.953Z,98914.62
2019-06-07T21:18:29.273Z,98928.00
2019-06-07T21:20:56.712Z,98927.59
2019-06-07T21:23:24.135Z,98926.09
2019-06-07T21:25:51.613Z,98919.42
2019-06-07T21:28:19.052Z,98917.34
2019-06-07T21:30:46.566Z,98908.30
2019-06-07T21:33:14.053Z,98899.49
2019-06-07T21:35:41.471Z,98893.13
2019-06-07T21:38:09.915Z,98905.69
2019-06-07T21:40:36.438Z,98911.55
2019-06-07T21:43:04.216Z,98928.14
2019-06-07T21:45:31.341Z,98931.97
2019-06-07T21:47:59.811Z,98924.94
2019-06-07T21:50:27.251Z,98926.80
2019-06-07T21:52:54.683Z,98930.75
2019-06-07T21:55:22.129Z,98928.27
2019-06-07T21:57:49.568Z,98924.47
2019-06-07T22:00:31.872Z,98933.93
2019-06-07T22:02:59.955Z,98929.09
2019-06-07T22:05:28.967Z,98941.94
2019-06-07T22:07:56.523Z,98955.97
2019-06-07T22:10:23.947Z,98950.98
2019-06-07T22:12:51.403Z,98962.19
2019-06-07T22:15:33.140Z,98953.75
2019-06-07T22:17:46.409Z,98963.37
2019-06-07T22:20:14.755Z,98965.83
2019-06-07T22:22:41.353Z,98953.21
2019-06-07T22:25:09.287Z,98949.22
2019-06-07T22:27:36.331Z,98950.72
2019-06-07T22:30:04.467Z,98979.53
2019-06-07T22:32:31.924Z,98945.70
2019-06-07T22:34:59.380Z,98932.20
2019-06-07T22:37:26.842Z,98945.73
2019-06-07T22:39:55.269Z,98939.05
2019-06-07T22:42:22.772Z,98938.31
2019-06-07T22:44:50.199Z,98945.17
2019-06-07T22:47:18.322Z,98935.27
2019-06-07T22:49:45.147Z,98926.59
2019-06-07T22:52:15.203Z,98929.11
2019-06-07T22:54:40.078Z,98940.20
2019-06-07T22:57:10.098Z,98926.10
2019-06-07T22:59:36.858Z,98950.52
2019-06-07T23:02:04.315Z,98949.41
2019-06-07T23:04:31.754Z,98956.44
2019-06-07T23:06:59.223Z,98963.67
2019-06-07T23:09:26.645Z,98964.86
2019-06-07T23:11:54.110Z,98949.59
2019-06-07T23:14:21.532Z,98967.30
2019-06-07T23:16:55.602Z,98967.22
2019-06-07T23:19:16.472Z,98958.23
2019-06-07T23:21:43.926Z,98962.77
2019-06-07T23:24:11.902Z,98967.64
2019-06-07T23:26:38.856Z,98969.06
2019-06-07T23:29:06.342Z,98967.78
2019-06-07T23:31:33.800Z,98961.14
2019-06-07T23:34:02.104Z,98972.52
2019-06-07T23:36:29.383Z,98968.89
2019-06-07T23:38:56.858Z,98979.81
2019-06-07T23:41:24.335Z,98962.34
2019-06-07T23:43:51.779Z,98972.41
2019-06-07T23:46:19.480Z,98962.88
2019-06-07T23:48:46.679Z,98954.92
2019-06-07T23:51:14.153Z,98969.80
2019-06-07T23:53:41.613Z,98969.27
2019-06-07T23:56:09.101Z,98967.98
2019-06-07T23:58:36.556Z,98977.56
